Time,TemperatureF,DewpointF,PressureIn,WindDirection,WindDirectionDegrees,WindSpeedMPH,WindSpeedGustMPH,Humidity,HourlyPrecipIn,Conditions,Clouds,dailyrainin,SoftwareType,DateUTC
2013-07-04 00:08:00,64.0,63.5,30.22,North,0,0.0,-999.0,98,-99.99,,,0.00,Acu-Link.com,2013-07-04 04:08:00,
2013-07-04 00:23:00,63.9,63.3,30.21,North,0,0.0,-999.0,98,-99.99,,,0.00,Acu-Link.com,2013-07-04 04:23:00,
2013-07-04 00:38:00,63.5,62.9,30.22,North,0,0.0,-999.0,98,-99.99,,,0.00,Acu-Link.com,2013-07-04 04:38:00,
2013-07-04 00:53:00,63.1,62.6,30.21,North,0,0.0,-999.0,98,-99.99,,,0.00,Acu-Link.com,2013-07-04 04:53:00,
2013-07-04 01:09:00,63.0,62.4,30.21,North,0,0.0,-999.0,98,-99.99,,,0.00,Acu-Link.com,2013-07-04 05:09:00,
2013-07-04 01:24:00,62.8,62.2,30.21,North,0,0.0,-999.0,98,-99.99,,,0.00,Acu-Link.com,2013-07-04 05:24:00,
2013-07-04 01:39:00,62.8,62.2,30.21,North,0,0.0,-999.0,98,-99.99,,,0.00,Acu-Link.com,2013-07-04 05:39:00,
2013-07-04 01:54:00,62.6,62.0,30.21,North,0,0.0,-999.0,98,-99.99,,,0.00,Acu-Link.com,2013-07-04 05:54:00,
2013-07-04 02:09:00,62.4,61.8,30.21,North,0,0.0,-999.0,98,-99.99,,,0.00,Acu-Link.com,2013-07-04 06:09:00,
2013-07-04 02:25:00,62.1,61.5,30.21,North,0,0.0,-999.0,98,-99.99,,,0.00,Acu-Link.com,2013-07-04 06:25:00,
2013-07-04 02:40:00,62.1,61.5,30.20,North,0,0.0,-999.0,98,-99.99,,,0.00,Acu-Link.com,2013-07-04 06:40:00,
2013-07-04 02:55:00,61.9,61.3,30.21,North,0,0.0,-999.0,98,-99.99,,,0.00,Acu-Link.com,2013-07-04 06:55:00,
2013-07-04 03:10:00,61.9,61.3,30.20,North,0,0.0,-999.0,98,-99.99,,,0.00,Acu-Link.com,2013-07-04 07:10:00,
2013-07-04 03:26:00,61.9,61.3,30.20,North,0,0.0,-999.0,98,-99.99,,,0.00,Acu-Link.com,2013-07-04 07:26:00,
2013-07-04 03:41:00,61.7,61.1,30.20,North,0,0.0,-999.0,98,-99.99,,,0.00,Acu-Link.com,2013-07-04 07:41:00,
2013-07-04 03:56:00,61.3,60.8,30.20,North,0,0.0,-999.0,98,-99.99,,,0.00,Acu-Link.com,2013-07-04 07:56:00,
2013-07-04 04:12:00,61.3,60.8,30.20,North,0,0.0,-999.0,98,-99.99,,,0.00,Acu-Link.com,2013-07-04 08:12:00,
2013-07-04 04:28:00,61.3,60.8,30.20,North,0,0.0,-999.0,98,-99.99,,,0.00,Acu-Link.com,2013-07-04 08:28:00,
2013-07-04 04:43:00,61.2,60.6,30.21,North,0,0.0,-999.0,98,-99.99,,,0.00,Acu-Link.com,2013-07-04 08:43:00,
2013-07-04 04:58:00,61.3,60.8,30.21,North,0,0.0,-999.0,98,-99.99,,,0.00,Acu-Link.com,2013-07-04 08:58:00,
2013-07-04 05:13:00,61.2,60.6,30.21,North,0,0.0,-999.0,98,-99.99,,,0.00,Acu-Link.com,2013-07-04 09:13:00,
2013-07-04 05:28:00,61.0,60.4,30.21,North,0,0.0,-999.0,98,-99.99,,,0.00,Acu-Link.com,2013-07-04 09:28:00,
2013-07-04 05:43:00,61.3,60.8,30.22,West,270,0.0,-999.0,98,-99.99,,,0.00,Acu-Link.com,2013-07-04 09:43:00,
2013-07-04 05:58:00,61.3,60.8,30.22,ENE,67,0.0,-999.0,98,-99.99,,,0.00,Acu-Link.com,2013-07-04 09:58:00,
2013-07-04 06:14:00,61.3,60.8,30.22,ENE,67,0.0,-999.0,98,-99.99,,,0.00,Acu-Link.com,2013-07-04 10:14:00,
2013-07-04 06:29:00,61.5,60.9,30.23,SW,225,0.0,-999.0,98,-99.99,,,0.00,Acu-Link.com,2013-07-04 10:29:00,
2013-07-04 06:44:00,62.1,61.5,30.23,NE,45,0.0,-999.0,98,-99.99,,,0.00,Acu-Link.com,2013-07-04 10:44:00,
2013-07-04 06:59:00,62.6,62.0,30.23,NE,45,0.0,-999.0,98,-99.99,,,0.00,Acu-Link.com,2013-07-04 10:59:00,
2013-07-04 07:14:00,63.1,62.6,30.22,WSW,247,0.0,-999.0,98,-99.99,,,0.00,Acu-Link.com,2013-07-04 11:14:00,
2013-07-04 07:30:00,64.0,63.5,30.23,ENE,67,0.0,-999.0,98,-99.99,,,0.00,Acu-Link.com,2013-07-04 11:30:00,
2013-07-04 07:45:00,64.6,64.0,30.23,East,90,0.0,-999.0,98,-99.99,,,0.00,Acu-Link.com,2013-07-04 11:45:00,
2013-07-04 08:00:00,65.1,64.5,30.23,West,270,0.0,-999.0,98,-99.99,,,0.00,Acu-Link.com,2013-07-04 12:00:00,
2013-07-04 08:15:00,66.2,65.6,30.23,SSW,202,0.0,-999.0,98,-99.99,,,0.00,Acu-Link.com,2013-07-04 12:15:00,
2013-07-04 08:30:00,67.3,66.7,30.23,SSW,202,0.0,-999.0,98,-99.99,,,0.00,Acu-Link.com,2013-07-04 12:30:00,
2013-07-04 08:45:00,68.2,67.6,30.23,SSW,202,0.0,-999.0,98,-99.99,,,0.00,Acu-Link.com,2013-07-04 12:45:00,
2013-07-04 09:01:00,68.9,68.3,30.23,SSW,202,0.0,-999.0,98,-99.99,,,0.00,Acu-Link.com,2013-07-04 13:01:00,
2013-07-04 09:16:00,69.6,69.0,30.22,South,180,0.0,-999.0,98,-99.99,,,0.00,Acu-Link.com,2013-07-04 13:16:00,
2013-07-04 09:31:00,71.2,70.6,30.22,SW,225,0.0,-999.0,98,-99.99,,,0.00,Acu-Link.com,2013-07-04 13:31:00,
2013-07-04 09:46:00,72.3,71.7,30.22,SW,225,0.0,-999.0,98,-99.99,,,0.00,Acu-Link.com,2013-07-04 13:46:00,
2013-07-04 10:02:00,73.9,73.3,30.22,North,0,0.0,-999.0,98,-99.99,,,0.00,Acu-Link.com,2013-07-04 14:02:00,
2013-07-04 10:17:00,75.0,74.4,30.22,SSW,202,0.0,-999.0,98,-99.99,,,0.00,Acu-Link.com,2013-07-04 14:17:00,
2013-07-04 10:32:00,75.7,75.1,30.22,West,270,0.0,-999.0,98,-99.99,,,0.00,Acu-Link.com,2013-07-04 14:32:00,
2013-07-04 10:47:00,76.1,75.5,30.22,West,270,0.0,-999.0,98,-99.99,,,0.00,Acu-Link.com,2013-07-04 14:47:00,
2013-07-04 11:02:00,77.5,74.0,30.21,ESE,112,0.0,-999.0,89,-99.99,,,0.00,Acu-Link.com,2013-07-04 15:02:00,
2013-07-04 11:18:00,79.3,73.4,30.20,SE,135,0.0,-999.0,82,-99.99,,,0.00,Acu-Link.com,2013-07-04 15:18:00,
2013-07-04 11:33:00,79.3,72.6,30.20,WSW,247,0.0,-999.0,80,-99.99,,,0.00,Acu-Link.com,2013-07-04 15:33:00,
2013-07-04 11:48:00,78.6,73.7,30.20,WSW,247,0.0,-999.0,85,-99.99,,,0.00,Acu-Link.com,2013-07-04 15:48:00,
2013-07-04 12:03:00,79.3,73.7,30.20,SE,135,0.0,-999.0,83,-99.99,,,0.00,Acu-Link.com,2013-07-04 16:03:00,
2013-07-04 12:18:00,79.3,73.4,30.19,SW,225,0.0,-999.0,82,-99.99,,,0.00,Acu-Link.com,2013-07-04 16:18:00,
2013-07-04 12:34:00,78.6,73.0,30.19,WSW,247,0.0,-999.0,83,-99.99,,,0.00,Acu-Link.com,2013-07-04 16:34:00,
2013-07-04 12:49:00,78.6,71.9,30.20,SW,225,0.0,-999.0,80,-99.99,,,0.00,Acu-Link.com,2013-07-04 16:49:00,
2013-07-04 13:04:00,79.7,73.3,30.19,West,270,2.7,-999.0,81,-99.99,,,0.00,Acu-Link.com,2013-07-04 17:04:00,
2013-07-04 13:19:00,81.0,72.3,30.18,SSW,202,0.0,-999.0,75,-99.99,,,0.00,Acu-Link.com,2013-07-04 17:19:00,
2013-07-04 13:34:00,81.5,72.0,30.17,WSW,247,0.0,-999.0,73,-99.99,,,0.00,Acu-Link.com,2013-07-04 17:34:00,
2013-07-04 13:50:00,82.2,71.9,30.16,ENE,67,0.0,-999.0,71,-99.99,,,0.00,Acu-Link.com,2013-07-04 17:50:00,
2013-07-04 14:05:00,83.1,70.6,30.16,SSE,157,1.1,-999.0,66,-99.99,,,0.00,Acu-Link.com,2013-07-04 18:05:00,
2013-07-04 14:20:00,83.5,70.0,30.16,WSW,247,1.1,-999.0,64,-99.99,,,0.00,Acu-Link.com,2013-07-04 18:20:00,
2013-07-04 14:35:00,83.5,68.6,30.16,SSW,202,2.2,-999.0,61,-99.99,,,0.00,Acu-Link.com,2013-07-04 18:35:00,
2013-07-04 14:51:00,82.4,69.4,30.16,SW,225,0.0,-999.0,65,-99.99,,,0.00,Acu-Link.com,2013-07-04 18:51:00,
2013-07-04 15:06:00,81.7,70.5,30.15,SW,225,0.0,-999.0,69,-99.99,,,0.00,Acu-Link.com,2013-07-04 19:06:00,
2013-07-04 15:21:00,81.0,70.2,30.15,West,270,1.6,-999.0,70,-99.99,,,0.00,Acu-Link.com,2013-07-04 19:21:00,
2013-07-04 15:36:00,80.2,70.0,30.15,WSW,247,3.1,-999.0,71,-99.99,,,0.00,Acu-Link.com,2013-07-04 19:36:00,
2013-07-04 15:51:00,80.2,70.0,30.14,SW,225,0.0,-999.0,71,-99.99,,,0.00,Acu-Link.com,2013-07-04 19:51:00,
2013-07-04 16:07:00,80.2,70.4,30.14,SSW,202,2.7,-999.0,72,-99.99,,,0.00,Acu-Link.com,2013-07-04 20:07:00,
2013-07-04 16:22:00,80.6,71.5,30.13,SW,225,2.2,-999.0,74,-99.99,,,0.00,Acu-Link.com,2013-07-04 20:22:00,
2013-07-04 16:37:00,80.4,71.7,30.13,SSW,202,2.7,-999.0,75,-99.99,,,0.00,Acu-Link.com,2013-07-04 20:37:00,
2013-07-04 16:52:00,79.7,70.7,30.12,SW,225,0.0,-999.0,74,-99.99,,,0.00,Acu-Link.com,2013-07-04 20:52:00,
2013-07-04 17:07:00,79.9,72.4,30.12,SSW,202,3.8,-999.0,78,-99.99,,,0.00,Acu-Link.com,2013-07-04 21:07:00,
2013-07-04 17:23:00,79.3,71.1,30.11,SW,225,0.0,-999.0,76,-99.99,,,0.00,Acu-Link.com,2013-07-04 21:23:00,
2013-07-04 17:38:00,79.5,71.3,30.12,SW,225,3.8,-999.0,76,-99.99,,,0.00,Acu-Link.com,2013-07-04 21:38:00,
2013-07-04 17:53:00,79.5,71.7,30.10,SW,225,2.7,-999.0,77,-99.99,,,0.00,Acu-Link.com,2013-07-04 21:53:00,
2013-07-04 18:08:00,79.2,71.3,30.10,SSW,202,0.0,-999.0,77,-99.99,,,0.00,Acu-Link.com,2013-07-04 22:08:00,
2013-07-04 18:23:00,78.8,70.6,30.11,SW,225,2.7,-999.0,76,-99.99,,,0.00,Acu-Link.com,2013-07-04 22:23:00,
2013-07-04 18:39:00,78.4,71.0,30.10,SSW,202,0.0,-999.0,78,-99.99,,,0.00,Acu-Link.com,2013-07-04 22:39:00,
2013-07-04 18:54:00,77.4,71.4,30.10,SW,225,0.0,-999.0,82,-99.99,,,0.00,Acu-Link.com,2013-07-04 22:54:00,
2013-07-04 19:09:00,76.5,72.0,30.11,SW,225,0.0,-999.0,86,-99.99,,,0.00,Acu-Link.com,2013-07-04 23:09:00,
2013-07-04 19:24:00,75.9,72.8,30.11,SW,225,1.1,-999.0,90,-99.99,,,0.00,Acu-Link.com,2013-07-04 23:24:00,
2013-07-04 19:39:00,75.4,72.6,30.11,SSW,202,0.0,-999.0,91,-99.99,,,0.00,Acu-Link.com,2013-07-04 23:39:00,
2013-07-04 19:54:00,75.0,73.5,30.12,SSW,202,0.0,-999.0,95,-99.99,,,0.00,Acu-Link.com,2013-07-04 23:54:00,
2013-07-04 20:10:00,74.7,74.1,30.12,NE,45,0.0,-999.0,98,-99.99,,,0.00,Acu-Link.com,2013-07-05 00:10:00,
2013-07-04 20:25:00,72.5,71.9,30.13,South,180,0.0,-999.0,98,-99.99,,,0.01,Acu-Link.com,2013-07-05 00:25:00,
2013-07-04 20:40:00,71.4,70.8,30.14,SSE,157,0.0,-999.0,98,-99.99,,,0.16,Acu-Link.com,2013-07-05 00:40:00,
2013-07-04 20:55:00,70.5,69.9,30.12,South,180,0.0,-999.0,98,-99.99,,,0.42,Acu-Link.com,2013-07-05 00:55:00,
2013-07-04 21:10:00,70.2,69.6,30.13,South,180,0.0,-999.0,98,-99.99,,,0.58,Acu-Link.com,2013-07-05 01:10:00,
2013-07-04 21:26:00,69.8,69.2,30.13,SW,225,0.0,-999.0,98,-99.99,,,0.59,Acu-Link.com,2013-07-05 01:26:00,
2013-07-04 21:41:00,69.6,69.0,30.14,South,180,0.0,-999.0,98,-99.99,,,0.59,Acu-Link.com,2013-07-05 01:41:00,
2013-07-04 21:56:00,69.3,68.7,30.13,NE,45,0.0,-999.0,98,-99.99,,,0.59,Acu-Link.com,2013-07-05 01:56:00,
2013-07-04 22:11:00,68.9,68.3,30.13,SSW,202,0.0,-999.0,98,-99.99,,,0.61,Acu-Link.com,2013-07-05 02:11:00,
2013-07-04 22:26:00,68.4,67.8,30.14,North,0,0.0,-999.0,98,-99.99,,,0.61,Acu-Link.com,2013-07-05 02:26:00,
2013-07-04 22:42:00,68.2,67.6,30.14,WSW,247,0.0,-999.0,98,-99.99,,,0.61,Acu-Link.com,2013-07-05 02:42:00,
2013-07-04 22:57:00,68.0,67.4,30.13,SSW,202,0.0,-999.0,98,-99.99,,,0.61,Acu-Link.com,2013-07-05 02:57:00,
2013-07-04 23:12:00,68.0,67.4,30.13,ESE,112,0.0,-999.0,98,-99.99,,,0.61,Acu-Link.com,2013-07-05 03:12:00,
2013-07-04 23:27:00,68.0,67.4,30.13,South,180,0.0,-999.0,98,-99.99,,,0.61,Acu-Link.com,2013-07-05 03:27:00,
2013-07-04 23:42:00,67.8,67.2,30.14,NNE,22,0.0,-999.0,98,-99.99,,,0.61,Acu-Link.com,2013-07-05 03:42:00,
2013-07-04 23:58:00,68.2,67.6,30.14,WSW,247,0.0,-999.0,98,-99.99,,,0.61,Acu-Link.com,2013-07-05 03:58:00,